createdAt,value
2019-03-13T00:02:12.910Z,70.60
2019-03-13T00:04:42.421Z,71.10
2019-03-13T00:07:11.847Z,71.00
2019-03-13T00:09:41.391Z,71.00
2019-03-13T00:12:10.924Z,70.80
2019-03-13T00:14:40.439Z,71.50
2019-03-13T00:17:09.943Z,70.90
2019-03-13T00:19:39.448Z,70.40
2019-03-13T00:22:11.860Z,70.70
2019-03-13T00:24:41.328Z,68.20
2019-03-13T00:27:10.872Z,68.30
2019-03-13T00:29:40.318Z,68.80
2019-03-13T00:32:12.519Z,68.70
2019-03-13T00:34:42.068Z,69.10
2019-03-13T00:37:11.602Z,68.70
2019-03-13T00:39:41.096Z,68.20
2019-03-13T00:42:10.582Z,68.10
2019-03-13T00:44:40.519Z,68.10
2019-03-13T00:47:09.983Z,68.00
2019-03-13T00:49:39.910Z,68.90
2019-03-13T00:52:09.415Z,68.20
2019-03-13T00:54:39.396Z,68.50
2019-03-13T00:57:08.899Z,68.10
2019-03-13T00:59:38.346Z,68.20
2019-03-13T01:02:29.972Z,68.70
2019-03-13T01:05:21.172Z,68.70
2019-03-13T01:07:50.664Z,67.90
2019-03-13T01:10:20.205Z,67.80
2019-03-13T01:12:49.751Z,67.30
2019-03-13T01:15:19.185Z,67.10
2019-03-13T01:17:49.070Z,67.10
2019-03-13T01:20:18.621Z,66.90
2019-03-13T01:22:48.413Z,66.50
2019-03-13T01:25:17.883Z,66.40
2019-03-13T01:27:47.356Z,66.30
2019-03-13T01:30:17.000Z,66.30
2019-03-13T01:32:49.770Z,66.50
2019-03-13T01:35:22.723Z,65.10
2019-03-13T01:37:52.211Z,65.30
2019-03-13T01:40:21.656Z,65.70
2019-03-13T01:42:51.416Z,64.90
2019-03-13T01:45:20.925Z,64.50
2019-03-13T01:47:50.731Z,63.60
2019-03-13T01:50:20.192Z,64.40
2019-03-13T01:52:50.245Z,65.40
2019-03-13T01:55:20.236Z,64.70
2019-03-13T01:57:49.727Z,64.50
2019-03-13T02:00:19.193Z,63.70
2019-03-13T02:02:48.756Z,64.50
2019-03-13T02:05:18.271Z,65.10
2019-03-13T02:07:48.134Z,65.20
2019-03-13T02:10:17.679Z,64.80
2019-03-13T02:12:47.412Z,64.10
2019-03-13T02:15:18.774Z,63.60
2019-03-13T02:17:48.273Z,62.40
2019-03-13T02:20:17.867Z,62.50
2019-03-13T02:22:50.796Z,62.80
2019-03-13T02:25:20.316Z,62.80
2019-03-13T02:27:49.775Z,62.40
2019-03-13T02:30:20.119Z,63.30
2019-03-13T02:32:49.601Z,62.60
2019-03-13T02:35:19.221Z,62.70
2019-03-13T02:37:49.168Z,62.60
2019-03-13T02:40:18.725Z,61.70
2019-03-13T02:42:48.236Z,61.60
2019-03-13T02:45:17.782Z,61.20
2019-03-13T02:47:47.316Z,62.20
2019-03-13T02:50:17.037Z,61.30
2019-03-13T02:52:46.557Z,61.50
2019-03-13T02:55:16.117Z,61.30
2019-03-13T02:57:45.695Z,62.10
2019-03-13T03:00:17.149Z,62.40
2019-03-13T03:02:49.625Z,63.20
2019-03-13T03:05:19.465Z,63.40
2019-03-13T03:07:48.993Z,62.80
2019-03-13T03:10:19.067Z,63.20
2019-03-13T03:12:48.591Z,63.30
2019-03-13T03:15:19.215Z,62.80
2019-03-13T03:17:48.748Z,62.70
2019-03-13T03:20:19.704Z,63.30
2019-03-13T03:22:49.251Z,63.10
2019-03-13T03:25:19.008Z,62.30
2019-03-13T03:27:48.594Z,62.30
2019-03-13T03:30:20.577Z,63.20
2019-03-13T03:32:50.134Z,62.60
2019-03-13T03:35:19.805Z,63.30
2019-03-13T03:37:49.818Z,62.20
2019-03-13T03:40:22.348Z,61.90
2019-03-13T03:42:50.689Z,62.80
2019-03-13T03:45:20.246Z,62.40
2019-03-13T03:47:49.715Z,63.00
2019-03-13T03:50:19.260Z,62.50
2019-03-13T03:52:48.893Z,62.80
2019-03-13T03:55:18.420Z,63.10
2019-03-13T03:57:47.972Z,62.90
2019-03-13T04:00:17.937Z,64.00
2019-03-13T04:02:47.496Z,63.60
2019-03-13T04:05:17.518Z,64.10
2019-03-13T04:07:47.993Z,63.90
2019-03-13T04:10:17.981Z,64.80
2019-03-13T04:12:47.494Z,65.00
2019-03-13T04:15:17.346Z,64.90
2019-03-13T04:17:46.869Z,65.20
2019-03-13T04:20:16.422Z,65.30
2019-03-13T04:22:45.936Z,65.40
2019-03-13T04:25:30.122Z,65.90
2019-03-13T04:28:00.761Z,66.20
2019-03-13T04:30:30.280Z,66.60
2019-03-13T04:32:59.828Z,66.80
2019-03-13T04:35:29.725Z,66.90
2019-03-13T04:37:59.209Z,67.10
2019-03-13T04:40:28.747Z,67.40
2019-03-13T04:42:58.190Z,67.70
2019-03-13T04:45:27.815Z,68.50
2019-03-13T04:47:57.316Z,68.10
2019-03-13T04:50:26.868Z,68.30
2019-03-13T04:52:56.399Z,68.20
2019-03-13T04:55:26.385Z,68.10
2019-03-13T04:57:55.986Z,68.00
2019-03-13T05:00:25.457Z,67.90
2019-03-13T05:02:55.350Z,68.10
2019-03-13T05:05:59.681Z,68.00
2019-03-13T05:08:45.550Z,67.70
2019-03-13T05:11:12.617Z,67.60
2019-03-13T05:13:42.131Z,67.40
2019-03-13T05:16:11.643Z,67.30
2019-03-13T05:18:41.247Z,67.20
2019-03-13T05:21:10.730Z,67.10
2019-03-13T05:23:40.267Z,67.00
2019-03-13T05:26:09.786Z,66.80
2019-03-13T05:28:39.332Z,67.00
2019-03-13T05:31:08.925Z,66.90
2019-03-13T05:33:38.474Z,67.00
2019-03-13T05:36:08.027Z,67.80
2019-03-13T05:38:37.645Z,68.00
2019-03-13T05:41:07.155Z,68.80
2019-03-13T05:43:36.658Z,68.00
2019-03-13T05:46:06.129Z,67.70
2019-03-13T05:48:35.705Z,67.80
2019-03-13T05:51:05.244Z,67.40
2019-03-13T05:53:34.828Z,67.00
2019-03-13T05:56:04.794Z,66.60
2019-03-13T05:58:34.235Z,66.90
2019-03-13T06:01:03.882Z,66.80
2019-03-13T06:03:33.515Z,66.70
2019-03-13T06:06:02.999Z,66.20
2019-03-13T06:08:32.947Z,66.10
2019-03-13T06:11:02.498Z,66.30
2019-03-13T06:13:31.991Z,66.10
2019-03-13T06:16:01.513Z,66.30
2019-03-13T06:18:31.053Z,66.40
2019-03-13T06:21:00.628Z,66.50
2019-03-13T06:23:30.246Z,66.90
2019-03-13T06:26:00.163Z,66.80
2019-03-13T06:28:29.683Z,67.00
2019-03-13T06:30:59.520Z,66.40
2019-03-13T06:33:28.961Z,66.90
2019-03-13T06:35:58.816Z,66.10
2019-03-13T06:38:28.867Z,66.30
2019-03-13T06:40:58.536Z,66.30
2019-03-13T06:43:28.127Z,65.90
2019-03-13T06:45:57.773Z,65.70
2019-03-13T06:48:27.292Z,65.00
2019-03-13T06:50:56.883Z,64.10
2019-03-13T06:53:26.558Z,64.30
2019-03-13T06:55:56.157Z,64.80
2019-03-13T06:58:40.932Z,64.80
2019-03-13T07:01:29.403Z,65.10
2019-03-13T07:04:27.027Z,66.00
2019-03-13T07:07:06.604Z,66.60
2019-03-13T07:09:44.577Z,67.00
2019-03-13T07:12:27.824Z,67.00
2019-03-13T07:15:35.852Z,66.60
2019-03-13T07:18:16.585Z,67.80
2019-03-13T07:20:57.945Z,68.10
2019-03-13T07:23:46.387Z,68.40
2019-03-13T07:26:33.653Z,67.20
2019-03-13T07:29:25.125Z,67.70
2019-03-13T07:32:07.848Z,67.10
2019-03-13T07:34:47.261Z,66.60
2019-03-13T07:37:35.736Z,66.40
2019-03-13T07:40:27.038Z,66.10
2019-03-13T07:43:13.889Z,66.20
2019-03-13T07:45:56.581Z,66.30
2019-03-13T07:48:39.485Z,65.90
2019-03-13T07:51:39.986Z,65.30
2019-03-13T07:54:21.660Z,65.70
2019-03-13T07:57:01.010Z,64.90
2019-03-13T07:59:47.202Z,64.30
2019-03-13T08:02:41.516Z,64.40
2019-03-13T08:05:36.156Z,64.40
2019-03-13T08:08:24.739Z,64.40
2019-03-13T08:11:13.984Z,64.70
2019-03-13T08:14:05.367Z,64.90
2019-03-13T08:16:59.932Z,64.50
2019-03-13T08:20:06.700Z,64.80
2019-03-13T08:23:07.144Z,64.40
2019-03-13T08:25:47.496Z,64.50
2019-03-13T08:28:41.876Z,64.80
2019-03-13T08:31:33.460Z,64.00
2019-03-13T08:34:28.088Z,63.50
2019-03-13T08:37:34.746Z,64.00
2019-03-13T08:40:19.547Z,63.80
2019-03-13T08:43:13.140Z,64.30
2019-03-13T08:45:55.985Z,63.40
2019-03-13T08:48:36.272Z,62.80
2019-03-13T08:51:16.449Z,62.90
2019-03-13T08:54:00.700Z,62.90
2019-03-13T08:56:36.431Z,63.30
2019-03-13T08:59:12.373Z,63.40
2019-03-13T09:02:06.725Z,63.50
2019-03-13T09:04:55.361Z,63.10
2019-03-13T09:07:49.783Z,62.80
2019-03-13T09:10:40.628Z,62.80
2019-03-13T09:13:20.539Z,62.80
2019-03-13T09:16:10.873Z,62.00
2019-03-13T09:18:55.013Z,61.90
2019-03-13T09:21:52.832Z,62.20
2019-03-13T09:24:50.414Z,61.90
2019-03-13T09:27:47.629Z,61.40
2019-03-13T09:30:34.444Z,60.60
2019-03-13T09:33:41.028Z,60.20
2019-03-13T09:36:18.788Z,61.20
2019-03-13T09:39:13.162Z,61.10
2019-03-13T09:42:10.547Z,60.30
2019-03-13T09:45:13.792Z,60.30
2019-03-13T09:48:01.885Z,60.20
2019-03-13T09:50:56.399Z,59.90
2019-03-13T09:53:30.604Z,60.40
2019-03-13T09:56:17.539Z,60.70
2019-03-13T09:59:04.599Z,60.70
2019-03-13T10:01:56.239Z,60.50
2019-03-13T10:04:56.927Z,60.70
2019-03-13T10:07:37.499Z,61.30
2019-03-13T10:10:21.252Z,61.30
2019-03-13T10:13:15.227Z,61.50
2019-03-13T10:15:56.032Z,62.10
2019-03-13T10:18:38.978Z,62.00
2019-03-13T10:21:23.113Z,61.70
2019-03-13T10:24:07.455Z,61.40
2019-03-13T10:26:54.547Z,61.40
2019-03-13T10:29:32.758Z,61.20
2019-03-13T10:32:24.040Z,61.40
2019-03-13T10:35:21.696Z,60.90
2019-03-13T10:38:12.898Z,60.50
2019-03-13T10:41:02.734Z,60.20
2019-03-13T10:44:06.127Z,60.10
2019-03-13T10:47:12.955Z,59.40
2019-03-13T10:49:50.940Z,59.90
2019-03-13T10:52:27.621Z,60.10
2019-03-13T10:55:18.959Z,59.70
2019-03-13T10:58:06.038Z,59.10
2019-03-13T11:01:06.298Z,59.00
2019-03-13T11:03:53.154Z,59.10
2019-03-13T11:06:54.009Z,58.90
2019-03-13T11:09:21.402Z,58.80
2019-03-13T11:12:12.858Z,59.60
2019-03-13T11:15:01.351Z,59.50
2019-03-13T11:18:01.784Z,58.70
2019-03-13T11:21:05.108Z,58.70
2019-03-13T11:23:49.436Z,58.10
2019-03-13T11:26:43.698Z,57.40
2019-03-13T11:29:20.243Z,57.30
2019-03-13T11:32:10.793Z,57.80
2019-03-13T11:34:53.028Z,56.90
2019-03-13T11:37:47.468Z,57.50
2019-03-13T11:40:41.703Z,57.40
2019-03-13T11:43:45.130Z,57.30
2019-03-13T11:46:32.504Z,56.70
2019-03-13T11:49:19.319Z,56.90
2019-03-13T11:52:13.752Z,57.30
2019-03-13T11:54:53.885Z,57.40
2019-03-13T11:57:41.856Z,56.80
2019-03-13T12:00:31.064Z,56.70
2019-03-13T12:03:10.596Z,56.80
2019-03-13T12:05:51.131Z,55.70
2019-03-13T12:08:45.728Z,55.70
2019-03-13T12:11:33.970Z,55.80
2019-03-13T12:14:19.719Z,56.70
2019-03-13T12:16:54.615Z,57.60
2019-03-13T12:19:31.651Z,57.50
2019-03-13T12:22:26.156Z,57.50
2019-03-13T12:25:08.683Z,57.70
2019-03-13T12:28:02.349Z,58.10
2019-03-13T12:31:03.272Z,57.50
2019-03-13T12:33:40.492Z,57.30
2019-03-13T12:36:42.083Z,57.40
2019-03-13T12:39:39.466Z,57.30
2019-03-13T12:42:27.953Z,57.20
2019-03-13T12:45:15.468Z,57.50
2019-03-13T12:47:51.224Z,58.20
2019-03-13T12:50:34.977Z,58.20
2019-03-13T12:53:35.738Z,59.10
2019-03-13T12:56:12.636Z,58.50
2019-03-13T12:59:15.933Z,58.40
2019-03-13T13:02:13.596Z,59.70
2019-03-13T13:05:10.818Z,59.90
2019-03-13T13:07:59.300Z,59.00
2019-03-13T13:10:46.338Z,59.50
2019-03-13T13:13:30.860Z,59.20
2019-03-13T13:16:34.508Z,58.30
2019-03-13T13:19:04.139Z,58.70
2019-03-13T13:21:33.684Z,59.90
2019-03-13T13:24:03.287Z,58.50
2019-03-13T13:26:32.860Z,59.20
2019-03-13T13:29:02.383Z,59.20
2019-03-13T13:31:31.922Z,59.20
2019-03-13T13:34:01.427Z,59.30
2019-03-13T13:36:30.933Z,58.70
2019-03-13T13:39:00.533Z,58.70
2019-03-13T13:41:30.104Z,58.80
2019-03-13T13:43:59.695Z,59.00
2019-03-13T13:46:31.409Z,59.60
2019-03-13T13:49:00.968Z,59.30
2019-03-13T13:51:32.727Z,60.80
2019-03-13T13:54:01.684Z,59.90
2019-03-13T13:56:31.122Z,60.20
2019-03-13T13:59:00.717Z,60.70
2019-03-13T14:01:30.237Z,62.30
2019-03-13T14:03:59.847Z,63.20
2019-03-13T14:06:29.381Z,64.20
2019-03-13T14:08:59.308Z,65.60
2019-03-13T14:11:28.868Z,65.70
2019-03-13T14:13:58.758Z,64.30
2019-03-13T14:16:28.301Z,64.10
2019-03-13T14:18:57.895Z,64.90
2019-03-13T14:21:27.737Z,65.50
2019-03-13T14:23:57.382Z,65.20
2019-03-13T14:26:26.856Z,66.30
2019-03-13T14:28:56.357Z,65.70
2019-03-13T14:31:27.875Z,66.50
2019-03-13T14:33:57.358Z,64.80
2019-03-13T14:36:26.906Z,65.60
2019-03-13T14:38:56.455Z,65.70
2019-03-13T14:41:26.671Z,65.70
2019-03-13T14:43:56.340Z,66.00
2019-03-13T14:46:25.915Z,65.40
2019-03-13T14:48:55.460Z,66.30
2019-03-13T14:51:25.170Z,65.70
2019-03-13T14:53:54.735Z,67.20
2019-03-13T14:56:24.443Z,66.00
2019-03-13T14:58:53.973Z,65.50
2019-03-13T15:01:23.520Z,66.00
2019-03-13T15:03:53.003Z,66.60
2019-03-13T15:06:22.616Z,66.80
2019-03-13T15:08:52.346Z,66.60
2019-03-13T15:11:21.898Z,67.00
2019-03-13T15:13:51.748Z,68.90
2019-03-13T15:16:21.276Z,68.60
2019-03-13T15:18:50.777Z,68.80
2019-03-13T15:21:20.308Z,70.10
2019-03-13T15:23:49.792Z,69.90
2019-03-13T15:26:19.294Z,70.70
2019-03-13T15:28:48.754Z,70.60
2019-03-13T15:31:18.303Z,70.30
2019-03-13T15:33:47.839Z,71.00
2019-03-13T15:36:17.392Z,71.50
2019-03-13T15:38:47.295Z,73.00
2019-03-13T15:41:16.930Z,72.70
2019-03-13T15:43:46.628Z,73.40
2019-03-13T15:46:16.189Z,75.00
2019-03-13T15:48:45.755Z,75.70
2019-03-13T15:51:15.563Z,77.00
2019-03-13T15:53:45.146Z,74.90
2019-03-13T15:56:15.036Z,76.10
2019-03-13T15:58:44.613Z,74.10
2019-03-13T16:01:14.132Z,75.80
2019-03-13T16:03:43.655Z,75.30
2019-03-13T16:06:13.227Z,75.60
2019-03-13T16:08:43.101Z,76.00
2019-03-13T16:11:13.850Z,75.50
2019-03-13T16:13:43.348Z,76.70
2019-03-13T16:16:12.864Z,75.50
2019-03-13T16:18:42.407Z,76.40
2019-03-13T16:21:11.882Z,75.30
2019-03-13T16:23:41.459Z,75.90
2019-03-13T16:26:11.319Z,75.60
2019-03-13T16:28:40.778Z,75.60
2019-03-13T16:31:11.212Z,75.70
2019-03-13T16:33:40.747Z,75.80
2019-03-13T16:36:10.496Z,76.30
2019-03-13T16:38:40.047Z,77.10
2019-03-13T16:41:09.656Z,77.60
2019-03-13T16:43:39.193Z,77.90
2019-03-13T16:46:08.800Z,77.80
2019-03-13T16:48:38.373Z,78.60
2019-03-13T16:51:07.826Z,78.50
2019-03-13T16:53:37.379Z,79.40
2019-03-13T16:56:06.836Z,79.60
2019-03-13T16:58:36.336Z,79.70
2019-03-13T17:01:05.902Z,80.30
2019-03-13T17:03:35.495Z,81.10
2019-03-13T17:06:05.205Z,82.00
2019-03-13T17:08:34.836Z,80.60
2019-03-13T17:11:04.420Z,81.70
2019-03-13T17:13:34.264Z,81.00
2019-03-13T17:16:04.997Z,81.40
2019-03-13T17:19:01.169Z,81.40
2019-03-13T17:21:31.153Z,81.70
2019-03-13T17:24:00.648Z,81.60
2019-03-13T17:26:30.126Z,80.80
2019-03-13T17:28:59.663Z,80.30
2019-03-13T17:31:29.136Z,80.30
2019-03-13T17:33:58.700Z,80.10
2019-03-13T17:36:28.212Z,79.50
2019-03-13T17:38:57.865Z,79.70
2019-03-13T17:41:27.539Z,79.30
2019-03-13T17:43:57.072Z,78.60
2019-03-13T17:46:26.639Z,77.90
2019-03-13T17:48:56.143Z,77.90
2019-03-13T17:51:25.802Z,77.40
2019-03-13T17:53:55.356Z,77.00
2019-03-13T17:56:24.916Z,76.60
2019-03-13T17:58:54.418Z,76.50
2019-03-13T18:01:24.064Z,76.40
2019-03-13T18:03:53.580Z,76.70
2019-03-13T18:06:23.135Z,77.50
2019-03-13T18:08:52.662Z,80.10
2019-03-13T18:11:22.193Z,78.80
2019-03-13T18:13:51.673Z,79.60
2019-03-13T18:16:21.177Z,80.60
2019-03-13T18:18:50.676Z,80.20
2019-03-13T18:21:20.210Z,79.80
2019-03-13T18:23:49.752Z,80.50
2019-03-13T18:26:19.374Z,80.00
2019-03-13T18:28:49.095Z,80.30
2019-03-13T18:31:18.663Z,79.60
2019-03-13T18:33:48.529Z,79.40
2019-03-13T18:36:18.069Z,81.10
2019-03-13T18:38:47.516Z,80.70
2019-03-13T18:41:17.082Z,82.10
2019-03-13T18:43:46.629Z,80.10
2019-03-13T18:46:16.173Z,79.00
2019-03-13T18:48:45.734Z,79.20
2019-03-13T18:51:15.316Z,80.60
2019-03-13T18:53:44.817Z,81.20
2019-03-13T18:56:14.352Z,79.80
2019-03-13T18:58:43.936Z,78.30
2019-03-13T19:01:13.620Z,80.80
2019-03-13T19:03:43.251Z,79.80
2019-03-13T19:06:12.900Z,80.30
2019-03-13T19:08:42.832Z,81.00
2019-03-13T19:11:12.848Z,81.00
2019-03-13T19:13:42.623Z,81.30
2019-03-13T19:16:12.438Z,82.10
2019-03-13T19:18:42.021Z,83.60
2019-03-13T19:21:11.614Z,84.50
2019-03-13T19:23:41.219Z,83.80
2019-03-13T19:26:11.212Z,83.20
2019-03-13T19:28:40.800Z,83.60
2019-03-13T19:31:10.353Z,84.20
2019-03-13T19:33:39.897Z,84.80
2019-03-13T19:36:09.356Z,84.50
2019-03-13T19:38:41.096Z,85.00
2019-03-13T19:41:10.108Z,84.60
2019-03-13T19:43:39.648Z,83.50
2019-03-13T19:46:09.625Z,84.00
2019-03-13T19:48:39.190Z,82.70
2019-03-13T19:51:08.736Z,82.90
2019-03-13T19:53:41.927Z,83.20
2019-03-13T19:56:10.658Z,83.60
2019-03-13T19:58:40.140Z,82.60
2019-03-13T20:01:09.668Z,83.40
2019-03-13T20:03:40.144Z,83.10
2019-03-13T20:06:09.729Z,83.70
2019-03-13T20:11:32.587Z,83.70
2019-03-13T20:14:02.134Z,83.60
2019-03-13T20:16:31.754Z,83.60
2019-03-13T20:19:01.337Z,85.00
2019-03-13T20:21:31.330Z,85.20
2019-03-13T20:24:01.003Z,85.00
2019-03-13T20:26:30.580Z,83.90
2019-03-13T20:29:00.129Z,85.00
2019-03-13T20:31:29.709Z,84.70
2019-03-13T20:33:59.206Z,84.00
2019-03-13T20:36:28.739Z,83.40
2019-03-13T20:38:58.317Z,83.40
2019-03-13T20:41:27.853Z,83.30
2019-03-13T20:43:57.434Z,83.80
2019-03-13T20:46:26.952Z,84.80
2019-03-13T20:48:56.494Z,84.20
2019-03-13T20:51:26.168Z,83.70
2019-03-13T20:54:59.407Z,83.10
2019-03-13T20:57:29.011Z,83.10
2019-03-13T20:59:58.589Z,83.10
2019-03-13T21:02:28.195Z,82.80
2019-03-13T21:04:57.799Z,83.20
2019-03-13T21:07:27.365Z,82.90
2019-03-13T21:09:56.896Z,82.80
2019-03-13T21:12:26.480Z,82.80
2019-03-13T21:14:56.167Z,83.60
2019-03-13T21:17:25.683Z,84.30
2019-03-13T21:19:55.242Z,84.00
2019-03-13T21:22:24.842Z,83.70
2019-03-13T21:24:54.393Z,84.50
2019-03-13T21:27:23.981Z,84.10
2019-03-13T21:29:53.563Z,85.00
2019-03-13T21:32:23.153Z,85.00
2019-03-13T21:34:52.771Z,84.50
2019-03-13T21:37:22.331Z,84.10
2019-03-13T21:39:51.924Z,83.80
2019-03-13T21:42:21.859Z,83.60
2019-03-13T21:44:52.696Z,84.10
2019-03-13T21:47:22.347Z,83.80
2019-03-13T21:49:51.947Z,83.80
2019-03-13T21:52:21.846Z,84.10
2019-03-13T21:54:52.282Z,84.70
2019-03-13T21:57:21.833Z,84.50
2019-03-13T21:59:51.604Z,84.70
2019-03-13T22:02:32.184Z,84.80
2019-03-13T22:04:52.412Z,84.30
2019-03-13T22:07:22.018Z,83.90
2019-03-13T22:09:51.555Z,84.00
2019-03-13T22:12:21.167Z,84.70
2019-03-13T22:14:53.461Z,84.20
2019-03-13T22:17:23.051Z,84.30
2019-03-13T22:19:52.662Z,84.90
2019-03-13T22:22:22.222Z,84.50
2019-03-13T22:24:51.837Z,84.20
2019-03-13T22:27:21.412Z,83.70
2019-03-13T22:29:50.995Z,84.20
2019-03-13T22:32:20.594Z,84.10
2019-03-13T22:34:57.120Z,84.50
2019-03-13T22:37:26.841Z,84.40
2019-03-13T22:39:56.440Z,85.40
2019-03-13T22:42:30.818Z,85.50
2019-03-13T22:45:00.398Z,85.70
2019-03-13T22:47:42.163Z,84.90
2019-03-13T22:50:01.171Z,84.50
2019-03-13T22:52:30.735Z,84.70
2019-03-13T22:55:00.694Z,84.30
2019-03-13T22:57:30.302Z,83.60
2019-03-13T22:59:59.944Z,82.20
2019-03-13T23:02:29.508Z,82.40
2019-03-13T23:04:59.396Z,81.50
2019-03-13T23:07:28.973Z,80.90
2019-03-13T23:09:58.533Z,80.70
2019-03-13T23:12:30.317Z,80.70
2019-03-13T23:14:59.563Z,80.70
2019-03-13T23:17:29.174Z,80.50
2019-03-13T23:19:59.882Z,80.70
2019-03-13T23:22:29.491Z,81.80
2019-03-13T23:24:59.628Z,82.20
2019-03-13T23:27:29.224Z,81.70
2019-03-13T23:29:58.840Z,82.80
2019-03-13T23:32:28.431Z,83.30
2019-03-13T23:34:58.035Z,83.50
2019-03-13T23:37:27.600Z,83.50
2019-03-13T23:39:57.212Z,83.80
2019-03-13T23:42:26.833Z,84.00
2019-03-13T23:44:56.420Z,84.70
2019-03-13T23:47:26.815Z,84.60
2019-03-13T23:49:56.447Z,85.00
2019-03-13T23:52:26.093Z,84.90
2019-03-13T23:54:55.662Z,84.90
2019-03-13T23:57:25.394Z,84.70
2019-03-13T23:59:56.233Z,84.60
